West Harrison, New York
Current Conditions -  °F | °C
As of 6:56 AM on Thursday 23 Oct 2014 (Local Time) from KHPN Reporting Station
Light Rain Light Rain  
Wind Chill: 42°   Ceiling: 4000
Heat Index: 49°   Visibility: 10mi
Dew Point: 45°   Wind: 18mph
Humidity: 86%   Direction: 340°NNW
Pressure: 29.67"   Gusts: 32mph
Location:  41.04°N, 73.75°W
Report Text: KHPN 231056Z 34016G28KT 10SM -RA SCT014 BKN040 09/07 A2967 RMK AO2 PK WND 36031/1035 SLP048 P0001 T00940072
Loading
Personal Weather Stations






























Interactive Weather Map
Tropical Storm Tracking
New forecast layout! Learn more

10-Day Weather Forecast

Advertisements
Track Severe Weather on mobile